sensor_id;sensor_type;location;lat;lon;timestamp;temperature;humidity
34145;HTU21D;69555;53.014;8.886;2023-10-31T00:02:12;12.49;107.73
34145;HTU21D;69555;53.014;8.886;2023-10-31T00:04:37;12.82;106.01
34145;HTU21D;69555;53.014;8.886;2023-10-31T00:07:03;12.89;104.94
34145;HTU21D;69555;53.014;8.886;2023-10-31T00:09:28;13.04;104.65
34145;HTU21D;69555;53.014;8.886;2023-10-31T00:11:54;12.87;105.42
34145;HTU21D;69555;53.014;8.886;2023-10-31T00:14:19;12.72;106.01
34145;HTU21D;69555;53.014;8.886;2023-10-31T00:16:45;12.66;106.57
34145;HTU21D;69555;53.014;8.886;2023-10-31T00:19:10;12.65;107.03
34145;HTU21D;69555;53.014;8.886;2023-10-31T00:21:36;13.01;105.08
34145;HTU21D;69555;53.014;8.886;2023-10-31T00:24:01;12.93;104.72
34145;HTU21D;69555;53.014;8.886;2023-10-31T00:26:28;12.67;106.72
34145;HTU21D;69555;53.014;8.886;2023-10-31T00:28:53;12.88;105.81
34145;HTU21D;69555;53.014;8.886;2023-10-31T00:31:19;12.95;105.26
34145;HTU21D;69555;53.014;8.886;2023-10-31T00:33:44;13.10;104.30
34145;HTU21D;69555;53.014;8.886;2023-10-31T00:36:10;13.07;104.47
34145;HTU21D;69555;53.014;8.886;2023-10-31T00:38:35;12.91;105.35
34145;HTU21D;69555;53.014;8.886;2023-10-31T00:41:00;12.87;105.77
34145;HTU21D;69555;53.014;8.886;2023-10-31T00:43:26;12.86;105.60
34145;HTU21D;69555;53.014;8.886;2023-10-31T00:45:51;12.92;105.78
34145;HTU21D;69555;53.014;8.886;2023-10-31T00:48:17;12.78;106.10
34145;HTU21D;69555;53.014;8.886;2023-10-31T00:50:43;12.72;106.82
34145;HTU21D;69555;53.014;8.886;2023-10-31T00:53:08;12.72;107.16
34145;HTU21D;69555;53.014;8.886;2023-10-31T00:55:34;12.69;107.08
34145;HTU21D;69555;53.014;8.886;2023-10-31T00:57:59;12.89;106.22
34145;HTU21D;69555;53.014;8.886;2023-10-31T01:00:25;12.81;106.63
34145;HTU21D;69555;53.014;8.886;2023-10-31T01:02:50;12.96;105.69
34145;HTU21D;69555;53.014;8.886;2023-10-31T01:05:16;12.82;106.37
34145;HTU21D;69555;53.014;8.886;2023-10-31T01:07:41;12.72;107.07
34145;HTU21D;69555;53.014;8.886;2023-10-31T01:10:07;12.80;106.54
34145;HTU21D;69555;53.014;8.886;2023-10-31T01:12:33;12.75;107.14
34145;HTU21D;69555;53.014;8.886;2023-10-31T01:14:58;12.78;106.79
34145;HTU21D;69555;53.014;8.886;2023-10-31T01:17:24;12.84;106.79
34145;HTU21D;69555;53.014;8.886;2023-10-31T01:19:49;12.89;106.05
34145;HTU21D;69555;53.014;8.886;2023-10-31T01:22:14;12.92;106.32
34145;HTU21D;69555;53.014;8.886;2023-10-31T01:24:40;12.86;106.37
34145;HTU21D;69555;53.014;8.886;2023-10-31T01:27:05;12.90;106.52
34145;HTU21D;69555;53.014;8.886;2023-10-31T01:29:31;13.10;105.53
34145;HTU21D;69555;53.014;8.886;2023-10-31T01:31:56;13.07;105.57
34145;HTU21D;69555;53.014;8.886;2023-10-31T01:34:22;12.95;105.76
34145;HTU21D;69555;53.014;8.886;2023-10-31T01:36:47;12.91;105.90
34145;HTU21D;69555;53.014;8.886;2023-10-31T01:39:12;12.93;106.32
34145;HTU21D;69555;53.014;8.886;2023-10-31T01:41:41;12.78;106.75
34145;HTU21D;69555;53.014;8.886;2023-10-31T01:44:06;12.64;107.96
34145;HTU21D;69555;53.014;8.886;2023-10-31T01:46:32;12.82;107.32
34145;HTU21D;69555;53.014;8.886;2023-10-31T01:48:57;12.93;106.75
34145;HTU21D;69555;53.014;8.886;2023-10-31T01:51:23;12.95;106.25
34145;HTU21D;69555;53.014;8.886;2023-10-31T01:53:48;13.06;106.21
34145;HTU21D;69555;53.014;8.886;2023-10-31T01:56:14;13.15;105.52
34145;HTU21D;69555;53.014;8.886;2023-10-31T01:58:39;13.19;104.93
34145;HTU21D;69555;53.014;8.886;2023-10-31T02:01:07;13.07;106.09
34145;HTU21D;69555;53.014;8.886;2023-10-31T02:03:32;12.96;106.24
34145;HTU21D;69555;53.014;8.886;2023-10-31T02:05:59;13.04;106.14
34145;HTU21D;69555;53.014;8.886;2023-10-31T02:08:27;12.99;106.05
34145;HTU21D;69555;53.014;8.886;2023-10-31T02:10:53;13.02;105.82
34145;HTU21D;69555;53.014;8.886;2023-10-31T02:13:18;12.79;107.37
34145;HTU21D;69555;53.014;8.886;2023-10-31T02:15:44;12.77;107.64
34145;HTU21D;69555;53.014;8.886;2023-10-31T02:18:10;12.89;106.88
34145;HTU21D;69555;53.014;8.886;2023-10-31T02:20:36;12.88;107.00
34145;HTU21D;69555;53.014;8.886;2023-10-31T02:23:02;13.01;106.20
34145;HTU21D;69555;53.014;8.886;2023-10-31T02:25:28;12.87;106.94
34145;HTU21D;69555;53.014;8.886;2023-10-31T02:27:53;12.84;106.95
34145;HTU21D;69555;53.014;8.886;2023-10-31T02:30:19;12.86;107.08
34145;HTU21D;69555;53.014;8.886;2023-10-31T02:32:44;12.82;107.21
34145;HTU21D;69555;53.014;8.886;2023-10-31T02:35:10;12.92;106.84
34145;HTU21D;69555;53.014;8.886;2023-10-31T02:37:35;12.74;107.67
34145;HTU21D;69555;53.014;8.886;2023-10-31T02:40:01;12.75;107.43
34145;HTU21D;69555;53.014;8.886;2023-10-31T02:42:27;12.89;107.30
34145;HTU21D;69555;53.014;8.886;2023-10-31T02:44:53;12.87;107.07
34145;HTU21D;69555;53.014;8.886;2023-10-31T02:47:18;12.80;107.66
34145;HTU21D;69555;53.014;8.886;2023-10-31T02:49:44;12.85;107.12
34145;HTU21D;69555;53.014;8.886;2023-10-31T02:52:09;13.06;106.11
34145;HTU21D;69555;53.014;8.886;2023-10-31T02:54:35;13.11;105.92
34145;HTU21D;69555;53.014;8.886;2023-10-31T02:57:00;13.03;106.34
34145;HTU21D;69555;53.014;8.886;2023-10-31T02:59:26;12.99;106.40
34145;HTU21D;69555;53.014;8.886;2023-10-31T03:01:52;13.02;106.04
34145;HTU21D;69555;53.014;8.886;2023-10-31T03:04:18;12.99;106.34
34145;HTU21D;69555;53.014;8.886;2023-10-31T03:06:43;12.89;106.72
34145;HTU21D;69555;53.014;8.886;2023-10-31T03:09:08;12.92;106.73
34145;HTU21D;69555;53.014;8.886;2023-10-31T03:11:34;12.92;107.20
34145;HTU21D;69555;53.014;8.886;2023-10-31T03:13:59;13.08;106.17
34145;HTU21D;69555;53.014;8.886;2023-10-31T03:16:25;13.04;106.16
34145;HTU21D;69555;53.014;8.886;2023-10-31T03:18:50;13.09;106.28
34145;HTU21D;69555;53.014;8.886;2023-10-31T03:21:16;13.07;106.24
34145;HTU21D;69555;53.014;8.886;2023-10-31T03:23:46;12.99;107.14
34145;HTU21D;69555;53.014;8.886;2023-10-31T03:26:11;12.93;107.06
34145;HTU21D;69555;53.014;8.886;2023-10-31T03:28:37;12.96;107.14
34145;HTU21D;69555;53.014;8.886;2023-10-31T03:31:02;13.17;106.23
34145;HTU21D;69555;53.014;8.886;2023-10-31T03:33:28;13.25;105.46
34145;HTU21D;69555;53.014;8.886;2023-10-31T03:35:53;13.15;106.01
34145;HTU21D;69555;53.014;8.886;2023-10-31T03:38:19;13.17;105.98
34145;HTU21D;69555;53.014;8.886;2023-10-31T03:40:44;13.26;105.40
34145;HTU21D;69555;53.014;8.886;2023-10-31T03:43:09;13.30;105.63
34145;HTU21D;69555;53.014;8.886;2023-10-31T03:45:35;13.15;105.50
34145;HTU21D;69555;53.014;8.886;2023-10-31T03:48:00;13.15;105.92
34145;HTU21D;69555;53.014;8.886;2023-10-31T03:50:26;13.15;106.45
34145;HTU21D;69555;53.014;8.886;2023-10-31T03:52:52;13.31;105.41
34145;HTU21D;69555;53.014;8.886;2023-10-31T03:55:17;13.44;104.48
34145;HTU21D;69555;53.014;8.886;2023-10-31T03:57:43;13.27;105.20
34145;HTU21D;69555;53.014;8.886;2023-10-31T04:00:09;13.33;105.35
34145;HTU21D;69555;53.014;8.886;2023-10-31T04:02:36;13.18;105.54
34145;HTU21D;69555;53.014;8.886;2023-10-31T04:05:02;13.12;105.84
34145;HTU21D;69555;53.014;8.886;2023-10-31T04:07:27;13.06;106.55
34145;HTU21D;69555;53.014;8.886;2023-10-31T04:09:53;13.09;106.44
34145;HTU21D;69555;53.014;8.886;2023-10-31T04:12:19;12.92;106.75
34145;HTU21D;69555;53.014;8.886;2023-10-31T04:14:44;12.85;107.80
34145;HTU21D;69555;53.014;8.886;2023-10-31T04:17:09;12.90;107.62
34145;HTU21D;69555;53.014;8.886;2023-10-31T04:19:36;12.92;107.20
34145;HTU21D;69555;53.014;8.886;2023-10-31T04:22:02;12.84;108.04
34145;HTU21D;69555;53.014;8.886;2023-10-31T04:24:27;12.97;107.46
34145;HTU21D;69555;53.014;8.886;2023-10-31T04:26:53;12.95;107.33
34145;HTU21D;69555;53.014;8.886;2023-10-31T04:29:18;12.78;108.25
34145;HTU21D;69555;53.014;8.886;2023-10-31T04:31:43;12.73;108.64
34145;HTU21D;69555;53.014;8.886;2023-10-31T04:34:09;12.81;108.51
34145;HTU21D;69555;53.014;8.886;2023-10-31T04:36:34;12.81;108.47
34145;HTU21D;69555;53.014;8.886;2023-10-31T04:39:00;12.74;108.52
34145;HTU21D;69555;53.014;8.886;2023-10-31T04:41:25;12.70;108.75
34145;HTU21D;69555;53.014;8.886;2023-10-31T04:43:50;12.62;109.14
34145;HTU21D;69555;53.014;8.886;2023-10-31T04:46:16;12.75;108.80
34145;HTU21D;69555;53.014;8.886;2023-10-31T04:48:42;12.62;109.01
34145;HTU21D;69555;53.014;8.886;2023-10-31T04:51:07;12.70;109.22
34145;HTU21D;69555;53.014;8.886;2023-10-31T04:53:32;12.69;109.06
34145;HTU21D;69555;53.014;8.886;2023-10-31T04:55:59;12.72;108.77
34145;HTU21D;69555;53.014;8.886;2023-10-31T04:58:25;12.61;108.64
34145;HTU21D;69555;53.014;8.886;2023-10-31T05:00:50;12.57;108.66
34145;HTU21D;69555;53.014;8.886;2023-10-31T05:03:16;12.43;107.23
34145;HTU21D;69555;53.014;8.886;2023-10-31T05:05:41;12.53;107.57
34145;HTU21D;69555;53.014;8.886;2023-10-31T05:08:06;12.49;107.74
34145;HTU21D;69555;53.014;8.886;2023-10-31T05:10:32;12.59;107.11
34145;HTU21D;69555;53.014;8.886;2023-10-31T05:12:58;12.52;107.05
34145;HTU21D;69555;53.014;8.886;2023-10-31T05:15:25;12.42;106.61
34145;HTU21D;69555;53.014;8.886;2023-10-31T05:17:50;12.35;106.52
34145;HTU21D;69555;53.014;8.886;2023-10-31T05:20:16;12.26;105.36
34145;HTU21D;69555;53.014;8.886;2023-10-31T05:22:41;12.22;105.18
34145;HTU21D;69555;53.014;8.886;2023-10-31T05:25:07;12.14;105.38
34145;HTU21D;69555;53.014;8.886;2023-10-31T05:27:32;12.00;105.73
34145;HTU21D;69555;53.014;8.886;2023-10-31T05:29:58;11.85;106.26
34145;HTU21D;69555;53.014;8.886;2023-10-31T05:32:23;11.81;106.75
34145;HTU21D;69555;53.014;8.886;2023-10-31T05:34:48;11.74;106.90
34145;HTU21D;69555;53.014;8.886;2023-10-31T05:37:14;11.57;107.67
34145;HTU21D;69555;53.014;8.886;2023-10-31T05:39:39;11.63;107.60
34145;HTU21D;69555;53.014;8.886;2023-10-31T05:42:05;11.59;107.87
34145;HTU21D;69555;53.014;8.886;2023-10-31T05:44:30;11.53;107.71
34145;HTU21D;69555;53.014;8.886;2023-10-31T05:46:55;11.48;108.34
34145;HTU21D;69555;53.014;8.886;2023-10-31T05:49:21;11.32;107.53
34145;HTU21D;69555;53.014;8.886;2023-10-31T05:51:53;11.19;107.56
34145;HTU21D;69555;53.014;8.886;2023-10-31T05:54:18;11.13;107.20
34145;HTU21D;69555;53.014;8.886;2023-10-31T05:56:44;11.00;107.46
34145;HTU21D;69555;53.014;8.886;2023-10-31T05:59:10;10.92;108.59
34145;HTU21D;69555;53.014;8.886;2023-10-31T06:01:36;10.81;108.72
34145;HTU21D;69555;53.014;8.886;2023-10-31T06:04:02;10.82;108.59
34145;HTU21D;69555;53.014;8.886;2023-10-31T06:06:27;10.69;109.23
34145;HTU21D;69555;53.014;8.886;2023-10-31T06:08:53;10.68;109.40
34145;HTU21D;69555;53.014;8.886;2023-10-31T06:11:18;10.58;109.84
34145;HTU21D;69555;53.014;8.886;2023-10-31T06:13:44;10.59;109.42
34145;HTU21D;69555;53.014;8.886;2023-10-31T06:16:10;10.58;109.35
34145;HTU21D;69555;53.014;8.886;2023-10-31T06:18:37;10.51;109.72
34145;HTU21D;69555;53.014;8.886;2023-10-31T06:21:02;10.57;109.54
34145;HTU21D;69555;53.014;8.886;2023-10-31T06:23:28;10.53;109.57
34145;HTU21D;69555;53.014;8.886;2023-10-31T06:25:53;10.45;109.08
34145;HTU21D;69555;53.014;8.886;2023-10-31T06:28:19;10.36;109.46
34145;HTU21D;69555;53.014;8.886;2023-10-31T06:30:44;10.35;109.43
34145;HTU21D;69555;53.014;8.886;2023-10-31T06:33:09;10.33;109.65
34145;HTU21D;69555;53.014;8.886;2023-10-31T06:35:36;10.33;109.38
34145;HTU21D;69555;53.014;8.886;2023-10-31T06:38:01;10.25;109.39
34145;HTU21D;69555;53.014;8.886;2023-10-31T06:40:27;10.31;109.00
34145;HTU21D;69555;53.014;8.886;2023-10-31T06:42:52;10.33;108.46
34145;HTU21D;69555;53.014;8.886;2023-10-31T06:45:18;10.38;107.17
34145;HTU21D;69555;53.014;8.886;2023-10-31T06:47:43;10.31;107.33
34145;HTU21D;69555;53.014;8.886;2023-10-31T06:50:09;10.40;106.49
34145;HTU21D;69555;53.014;8.886;2023-10-31T06:52:35;10.30;106.40
34145;HTU21D;69555;53.014;8.886;2023-10-31T06:55:00;10.27;105.63
34145;HTU21D;69555;53.014;8.886;2023-10-31T06:57:26;10.29;106.05
34145;HTU21D;69555;53.014;8.886;2023-10-31T06:59:52;10.30;105.03
34145;HTU21D;69555;53.014;8.886;2023-10-31T07:02:18;10.26;104.97
34145;HTU21D;69555;53.014;8.886;2023-10-31T07:04:43;10.27;105.43
34145;HTU21D;69555;53.014;8.886;2023-10-31T07:07:08;10.34;104.99
34145;HTU21D;69555;53.014;8.886;2023-10-31T07:09:34;10.31;104.42
34145;HTU21D;69555;53.014;8.886;2023-10-31T07:11:59;10.36;104.24
34145;HTU21D;69555;53.014;8.886;2023-10-31T07:14:25;10.40;103.73
34145;HTU21D;69555;53.014;8.886;2023-10-31T07:16:50;10.48;103.58
34145;HTU21D;69555;53.014;8.886;2023-10-31T07:19:15;10.58;103.05
34145;HTU21D;69555;53.014;8.886;2023-10-31T07:21:41;10.65;102.44
34145;HTU21D;69555;53.014;8.886;2023-10-31T07:24:07;10.73;102.15
34145;HTU21D;69555;53.014;8.886;2023-10-31T07:26:34;10.83;101.51
34145;HTU21D;69555;53.014;8.886;2023-10-31T07:29:00;10.78;101.64
34145;HTU21D;69555;53.014;8.886;2023-10-31T07:31:25;10.86;101.62
34145;HTU21D;69555;53.014;8.886;2023-10-31T07:33:51;10.78;101.77
34145;HTU21D;69555;53.014;8.886;2023-10-31T07:36:16;10.81;102.07
34145;HTU21D;69555;53.014;8.886;2023-10-31T07:38:41;10.93;101.20
34145;HTU21D;69555;53.014;8.886;2023-10-31T07:41:07;10.82;101.03
34145;HTU21D;69555;53.014;8.886;2023-10-31T07:43:32;10.82;102.28
34145;HTU21D;69555;53.014;8.886;2023-10-31T07:45:58;10.82;102.15
34145;HTU21D;69555;53.014;8.886;2023-10-31T07:48:23;10.74;102.41
34145;HTU21D;69555;53.014;8.886;2023-10-31T07:50:49;10.78;102.24
34145;HTU21D;69555;53.014;8.886;2023-10-31T07:53:14;10.94;101.32
34145;HTU21D;69555;53.014;8.886;2023-10-31T07:55:39;11.15;101.31
34145;HTU21D;69555;53.014;8.886;2023-10-31T07:58:05;11.22;99.97
34145;HTU21D;69555;53.014;8.886;2023-10-31T08:00:30;11.29;99.91
34145;HTU21D;69555;53.014;8.886;2023-10-31T08:02:56;11.51;98.56
34145;HTU21D;69555;53.014;8.886;2023-10-31T08:05:21;11.75;97.56
34145;HTU21D;69555;53.014;8.886;2023-10-31T08:07:47;11.82;96.82
34145;HTU21D;69555;53.014;8.886;2023-10-31T08:10:13;11.38;98.54
34145;HTU21D;69555;53.014;8.886;2023-10-31T08:12:38;11.07;100.77
34145;HTU21D;69555;53.014;8.886;2023-10-31T08:15:04;10.94;100.41
34145;HTU21D;69555;53.014;8.886;2023-10-31T08:17:30;10.81;101.77
34145;HTU21D;69555;53.014;8.886;2023-10-31T08:19:55;10.80;102.63
34145;HTU21D;69555;53.014;8.886;2023-10-31T08:22:20;10.72;103.22
34145;HTU21D;69555;53.014;8.886;2023-10-31T08:24:46;10.73;102.79
34145;HTU21D;69555;53.014;8.886;2023-10-31T08:27:11;10.77;103.28
34145;HTU21D;69555;53.014;8.886;2023-10-31T08:29:38;10.84;102.98
34145;HTU21D;69555;53.014;8.886;2023-10-31T08:32:03;10.80;103.12
34145;HTU21D;69555;53.014;8.886;2023-10-31T08:34:29;10.77;103.41
34145;HTU21D;69555;53.014;8.886;2023-10-31T08:36:55;10.84;104.10
34145;HTU21D;69555;53.014;8.886;2023-10-31T08:39:21;10.94;104.21
34145;HTU21D;69555;53.014;8.886;2023-10-31T08:41:54;10.88;104.57
34145;HTU21D;69555;53.014;8.886;2023-10-31T08:44:20;10.95;104.74
34145;HTU21D;69555;53.014;8.886;2023-10-31T08:46:46;10.88;104.62
34145;HTU21D;69555;53.014;8.886;2023-10-31T08:49:12;10.85;105.36
34145;HTU21D;69555;53.014;8.886;2023-10-31T08:51:38;10.86;105.75
34145;HTU21D;69555;53.014;8.886;2023-10-31T08:54:03;10.96;104.78
34145;HTU21D;69555;53.014;8.886;2023-10-31T08:56:29;10.86;104.18
34145;HTU21D;69555;53.014;8.886;2023-10-31T08:58:54;10.97;104.60
34145;HTU21D;69555;53.014;8.886;2023-10-31T09:01:20;11.08;104.39
34145;HTU21D;69555;53.014;8.886;2023-10-31T09:03:45;10.77;105.24
34145;HTU21D;69555;53.014;8.886;2023-10-31T09:06:11;10.87;105.44
34145;HTU21D;69555;53.014;8.886;2023-10-31T09:08:36;11.09;104.73
34145;HTU21D;69555;53.014;8.886;2023-10-31T09:11:04;11.04;105.01
34145;HTU21D;69555;53.014;8.886;2023-10-31T09:13:30;11.17;104.95
34145;HTU21D;69555;53.014;8.886;2023-10-31T09:16:00;11.10;104.44
34145;HTU21D;69555;53.014;8.886;2023-10-31T09:18:26;11.29;103.71
34145;HTU21D;69555;53.014;8.886;2023-10-31T09:20:51;11.36;104.02
34145;HTU21D;69555;53.014;8.886;2023-10-31T09:23:17;11.39;103.31
34145;HTU21D;69555;53.014;8.886;2023-10-31T09:25:46;11.42;103.63
34145;HTU21D;69555;53.014;8.886;2023-10-31T09:28:11;11.44;104.35
34145;HTU21D;69555;53.014;8.886;2023-10-31T09:30:37;11.47;103.58
34145;HTU21D;69555;53.014;8.886;2023-10-31T09:33:03;11.46;103.68
34145;HTU21D;69555;53.014;8.886;2023-10-31T09:35:28;11.38;103.79
34145;HTU21D;69555;53.014;8.886;2023-10-31T09:37:54;11.32;105.02
34145;HTU21D;69555;53.014;8.886;2023-10-31T09:40:20;11.54;104.41
34145;HTU21D;69555;53.014;8.886;2023-10-31T09:42:47;11.33;103.70
34145;HTU21D;69555;53.014;8.886;2023-10-31T09:45:13;11.44;104.35
34145;HTU21D;69555;53.014;8.886;2023-10-31T09:47:38;11.29;105.05
34145;HTU21D;69555;53.014;8.886;2023-10-31T09:50:04;11.28;105.46
34145;HTU21D;69555;53.014;8.886;2023-10-31T09:52:30;11.31;105.05
34145;HTU21D;69555;53.014;8.886;2023-10-31T09:54:56;11.43;104.39
34145;HTU21D;69555;53.014;8.886;2023-10-31T09:57:21;11.49;104.45
34145;HTU21D;69555;53.014;8.886;2023-10-31T09:59:47;11.48;104.29
34145;HTU21D;69555;53.014;8.886;2023-10-31T10:02:12;11.57;104.92
34145;HTU21D;69555;53.014;8.886;2023-10-31T10:04:38;11.46;104.47
34145;HTU21D;69555;53.014;8.886;2023-10-31T10:07:04;11.62;103.93
34145;HTU21D;69555;53.014;8.886;2023-10-31T10:09:30;11.49;104.88
34145;HTU21D;69555;53.014;8.886;2023-10-31T10:11:59;11.61;104.44
34145;HTU21D;69555;53.014;8.886;2023-10-31T10:14:25;11.44;104.34
34145;HTU21D;69555;53.014;8.886;2023-10-31T10:16:52;11.39;105.19
34145;HTU21D;69555;53.014;8.886;2023-10-31T10:19:19;11.49;105.20
34145;HTU21D;69555;53.014;8.886;2023-10-31T10:21:51;11.53;105.06
34145;HTU21D;69555;53.014;8.886;2023-10-31T10:24:18;11.71;104.86
34145;HTU21D;69555;53.014;8.886;2023-10-31T10:26:44;11.59;104.21
34145;HTU21D;69555;53.014;8.886;2023-10-31T10:29:10;11.83;103.60
34145;HTU21D;69555;53.014;8.886;2023-10-31T10:31:35;11.84;103.36
34145;HTU21D;69555;53.014;8.886;2023-10-31T10:34:00;11.92;102.65
34145;HTU21D;69555;53.014;8.886;2023-10-31T10:36:31;12.10;101.83
34145;HTU21D;69555;53.014;8.886;2023-10-31T10:38:58;12.26;101.47
34145;HTU21D;69555;53.014;8.886;2023-10-31T10:41:28;12.30;100.04
34145;HTU21D;69555;53.014;8.886;2023-10-31T10:44:06;12.59;99.50
34145;HTU21D;69555;53.014;8.886;2023-10-31T10:46:36;12.69;100.24
34145;HTU21D;69555;53.014;8.886;2023-10-31T10:49:05;12.87;98.03
34145;HTU21D;69555;53.014;8.886;2023-10-31T10:51:40;13.32;96.80
34145;HTU21D;69555;53.014;8.886;2023-10-31T10:57:02;13.17;96.62
34145;HTU21D;69555;53.014;8.886;2023-10-31T10:59:41;12.69;99.29
34145;HTU21D;69555;53.014;8.886;2023-10-31T11:02:08;12.81;99.00
34145;HTU21D;69555;53.014;8.886;2023-10-31T11:04:37;13.00;97.43
34145;HTU21D;69555;53.014;8.886;2023-10-31T11:07:02;13.02;98.72
34145;HTU21D;69555;53.014;8.886;2023-10-31T11:09:30;12.93;98.77
34145;HTU21D;69555;53.014;8.886;2023-10-31T11:11:56;12.87;97.33
34145;HTU21D;69555;53.014;8.886;2023-10-31T11:14:23;12.50;100.67
34145;HTU21D;69555;53.014;8.886;2023-10-31T11:16:52;12.41;101.13
34145;HTU21D;69555;53.014;8.886;2023-10-31T11:19:18;12.26;101.38
34145;HTU21D;69555;53.014;8.886;2023-10-31T11:24:21;12.12;102.22
34145;HTU21D;69555;53.014;8.886;2023-10-31T11:26:59;12.12;101.80
34145;HTU21D;69555;53.014;8.886;2023-10-31T11:29:25;12.10;102.07
34145;HTU21D;69555;53.014;8.886;2023-10-31T11:31:51;12.08;101.40
34145;HTU21D;69555;53.014;8.886;2023-10-31T11:34:17;12.22;102.20
34145;HTU21D;69555;53.014;8.886;2023-10-31T11:36:44;12.27;100.80
34145;HTU21D;69555;53.014;8.886;2023-10-31T11:39:13;12.40;101.12
34145;HTU21D;69555;53.014;8.886;2023-10-31T11:41:38;12.46;101.14
34145;HTU21D;69555;53.014;8.886;2023-10-31T11:44:04;12.87;99.37
34145;HTU21D;69555;53.014;8.886;2023-10-31T11:46:30;12.37;101.68
34145;HTU21D;69555;53.014;8.886;2023-10-31T11:48:56;12.40;101.88
34145;HTU21D;69555;53.014;8.886;2023-10-31T11:51:22;12.22;102.89
34145;HTU21D;69555;53.014;8.886;2023-10-31T11:53:48;12.21;103.02
34145;HTU21D;69555;53.014;8.886;2023-10-31T11:56:15;12.08;104.12
34145;HTU21D;69555;53.014;8.886;2023-10-31T11:58:40;12.01;104.38
34145;HTU21D;69555;53.014;8.886;2023-10-31T12:01:10;12.06;103.42
34145;HTU21D;69555;53.014;8.886;2023-10-31T12:03:40;12.01;104.03
34145;HTU21D;69555;53.014;8.886;2023-10-31T12:06:07;11.83;105.10
34145;HTU21D;69555;53.014;8.886;2023-10-31T12:08:38;11.86;104.79
34145;HTU21D;69555;53.014;8.886;2023-10-31T12:11:23;12.01;105.01
34145;HTU21D;69555;53.014;8.886;2023-10-31T12:14:01;12.00;104.60
34145;HTU21D;69555;53.014;8.886;2023-10-31T12:16:31;12.07;104.10
34145;HTU21D;69555;53.014;8.886;2023-10-31T12:19:02;12.22;102.92
34145;HTU21D;69555;53.014;8.886;2023-10-31T12:24:09;12.36;103.41
34145;HTU21D;69555;53.014;8.886;2023-10-31T12:26:36;12.43;101.22
34145;HTU21D;69555;53.014;8.886;2023-10-31T12:29:18;12.50;102.59
34145;HTU21D;69555;53.014;8.886;2023-10-31T12:31:52;12.49;100.55
34145;HTU21D;69555;53.014;8.886;2023-10-31T12:34:22;12.41;101.70
34145;HTU21D;69555;53.014;8.886;2023-10-31T12:36:49;12.41;103.44
34145;HTU21D;69555;53.014;8.886;2023-10-31T12:39:16;12.37;103.18
34145;HTU21D;69555;53.014;8.886;2023-10-31T12:41:43;12.35;103.34
34145;HTU21D;69555;53.014;8.886;2023-10-31T12:44:08;12.43;103.46
34145;HTU21D;69555;53.014;8.886;2023-10-31T12:46:40;12.59;102.88
34145;HTU21D;69555;53.014;8.886;2023-10-31T12:49:17;12.44;101.58
34145;HTU21D;69555;53.014;8.886;2023-10-31T12:52:00;12.25;102.22
34145;HTU21D;69555;53.014;8.886;2023-10-31T12:54:37;12.05;100.45
34145;HTU21D;69555;53.014;8.886;2023-10-31T12:57:06;12.10;101.20
34145;HTU21D;69555;53.014;8.886;2023-10-31T12:59:32;11.89;101.42
34145;HTU21D;69555;53.014;8.886;2023-10-31T13:01:58;11.86;101.27
34145;HTU21D;69555;53.014;8.886;2023-10-31T13:04:32;11.99;100.16
34145;HTU21D;69555;53.014;8.886;2023-10-31T13:07:05;11.93;99.40
34145;HTU21D;69555;53.014;8.886;2023-10-31T13:09:32;11.78;99.09
34145;HTU21D;69555;53.014;8.886;2023-10-31T13:12:02;11.67;98.00
34145;HTU21D;69555;53.014;8.886;2023-10-31T13:14:28;11.53;99.00
34145;HTU21D;69555;53.014;8.886;2023-10-31T13:16:56;11.39;98.72
34145;HTU21D;69555;53.014;8.886;2023-10-31T13:19:21;11.44;98.53
34145;HTU21D;69555;53.014;8.886;2023-10-31T13:21:48;11.28;99.28
34145;HTU21D;69555;53.014;8.886;2023-10-31T13:24:13;11.17;99.07
34145;HTU21D;69555;53.014;8.886;2023-10-31T13:26:38;11.23;99.44
34145;HTU21D;69555;53.014;8.886;2023-10-31T13:29:04;11.16;99.80
34145;HTU21D;69555;53.014;8.886;2023-10-31T13:31:29;11.02;101.55
34145;HTU21D;69555;53.014;8.886;2023-10-31T13:33:55;10.81;102.29
34145;HTU21D;69555;53.014;8.886;2023-10-31T13:36:20;10.83;101.43
34145;HTU21D;69555;53.014;8.886;2023-10-31T13:38:46;10.80;100.78
34145;HTU21D;69555;53.014;8.886;2023-10-31T13:41:13;10.71;101.15
34145;HTU21D;69555;53.014;8.886;2023-10-31T13:43:38;10.79;100.63
34145;HTU21D;69555;53.014;8.886;2023-10-31T13:46:04;10.81;100.79
34145;HTU21D;69555;53.014;8.886;2023-10-31T13:48:30;10.88;100.13
34145;HTU21D;69555;53.014;8.886;2023-10-31T13:50:55;11.04;99.35
34145;HTU21D;69555;53.014;8.886;2023-10-31T13:53:20;11.26;98.57
34145;HTU21D;69555;53.014;8.886;2023-10-31T13:55:46;11.36;96.69
34145;HTU21D;69555;53.014;8.886;2023-10-31T13:58:12;11.12;97.90
34145;HTU21D;69555;53.014;8.886;2023-10-31T14:00:37;11.23;97.87
34145;HTU21D;69555;53.014;8.886;2023-10-31T14:03:03;11.22;98.20
34145;HTU21D;69555;53.014;8.886;2023-10-31T14:05:28;11.62;97.06
34145;HTU21D;69555;53.014;8.886;2023-10-31T14:07:54;11.61;96.62
34145;HTU21D;69555;53.014;8.886;2023-10-31T14:10:19;11.46;95.90
34145;HTU21D;69555;53.014;8.886;2023-10-31T14:12:48;11.03;96.39
34145;HTU21D;69555;53.014;8.886;2023-10-31T14:15:13;10.85;97.33
34145;HTU21D;69555;53.014;8.886;2023-10-31T14:17:39;10.89;97.43
34145;HTU21D;69555;53.014;8.886;2023-10-31T14:20:05;10.77;97.95
34145;HTU21D;69555;53.014;8.886;2023-10-31T14:22:30;10.85;97.59
34145;HTU21D;69555;53.014;8.886;2023-10-31T14:24:56;10.66;97.08
34145;HTU21D;69555;53.014;8.886;2023-10-31T14:27:21;10.60;97.84
34145;HTU21D;69555;53.014;8.886;2023-10-31T14:29:46;10.69;96.96
34145;HTU21D;69555;53.014;8.886;2023-10-31T14:32:12;10.80;96.63
34145;HTU21D;69555;53.014;8.886;2023-10-31T14:34:37;10.98;96.71
34145;HTU21D;69555;53.014;8.886;2023-10-31T14:37:03;10.86;95.74
34145;HTU21D;69555;53.014;8.886;2023-10-31T14:39:29;10.87;96.84
34145;HTU21D;69555;53.014;8.886;2023-10-31T14:41:54;11.04;96.07
34145;HTU21D;69555;53.014;8.886;2023-10-31T14:44:20;10.80;96.27
34145;HTU21D;69555;53.014;8.886;2023-10-31T14:46:46;10.84;94.42
34145;HTU21D;69555;53.014;8.886;2023-10-31T14:49:12;10.71;93.86
34145;HTU21D;69555;53.014;8.886;2023-10-31T14:51:37;10.53;94.75
34145;HTU21D;69555;53.014;8.886;2023-10-31T14:54:03;10.59;93.58
34145;HTU21D;69555;53.014;8.886;2023-10-31T14:56:28;10.36;94.69
34145;HTU21D;69555;53.014;8.886;2023-10-31T14:58:55;10.45;94.95
34145;HTU21D;69555;53.014;8.886;2023-10-31T15:01:20;10.46;93.62
34145;HTU21D;69555;53.014;8.886;2023-10-31T15:03:46;10.39;93.54
34145;HTU21D;69555;53.014;8.886;2023-10-31T15:06:11;10.38;94.14
34145;HTU21D;69555;53.014;8.886;2023-10-31T15:08:37;10.26;94.30